Impacts METAR Board
IDs:

KLAX - Los Angeles Intl, CA, US

Updated at: 1800 UTC 24 Sep 2018
Potential Impact None Slight Moderate High
Time 24/06Z 24/07Z 24/08Z 24/09Z 24/10Z 24/11Z 24/12Z 24/13Z 24/14Z 24/15Z 24/16Z 24/17Z 24/18Z
Temp66 66 66 65 65 65 66 65 65 66 66 67 70
Dewpt61 60 60 60 60 60 60 59 59 59 58 58 58
Altim29.86 29.87 29.87 29.86 29.85 29.85 29.85 29.86 29.87 29.89 29.91 29.91 29.91
VIS10 10 10 10 10 10 10 9 7 7 10 8 9
CIG11 12 12 12 12 11 12 12 16 19 18 19 21
CoverBKNOVCOVCOVCBKNOVCOVCOVCOVCOVCOVCOVCBKN
FltCatMVFRMVFRMVFRMVFRMVFRMVFRMVFRMVFRMVFRMVFRMVFRMVFRMVFR
WX--------------------------
WDir270260250230210200002302500290260
WSpd5 5 5 3 3 4 0 0 4 3 6 3 7
WGst-- -- -- -- -- -- -- -- -- -- -- -- --
Raw hourly METARs
KLAX 240553Z 27005KT 10SM SCT009 BKN011 19/16 A2986 RMK AO2 SLP109 T01890161 10211 20189 51011 $
KLAX 240653Z 26005KT 10SM SCT009 OVC012 19/16 A2987 RMK AO2 SLP111 T01890156 $
KLAX 240753Z 25005KT 10SM FEW009 OVC012 19/16 A2987 RMK AO2 SLP110 T01890156 402280183 $
KLAX 240853Z 23003KT 10SM FEW009 OVC012 18/16 A2986 RMK AO2 SLP109 T01830156 58001 $
KLAX 240953Z 21003KT 10SM FEW009 BKN012 18/16 A2985 RMK AO2 SLP107 T01830156 $
KLAX 241053Z 20004KT 10SM FEW009 OVC011 18/16 A2985 RMK AO2 SLP107 T01830156 $
KLAX 241153Z 00000KT 10SM FEW009 OVC012 19/16 A2985 RMK AO2 SLP106 T01890156 10189 20183 56004 $
KLAX 241253Z 00000KT 9SM FEW010 OVC012 18/15 A2986 RMK AO2 SLP109 T01830150 $
KLAX 241353Z 23004KT 7SM SCT012 OVC016 18/15 A2987 RMK AO2 SLP114 T01830150 $
KLAX 241453Z 25003KT 7SM SCT014 OVC019 19/15 A2989 RMK AO2 SLP119 T01890150 53013 $
KLAX 241553Z VRB06KT 10SM OVC018 19/14 A2991 RMK AO2 SLP125 T01890144 $
KLAX 241653Z 29003KT 8SM SCT014 OVC019 19/14 A2991 RMK AO2 SLP127 T01940144 $
KLAX 241753Z 26007KT 9SM SCT015 BKN021 21/14 A2991 RMK AO2 SLP128 T02110144 10211 20183 51008 $



Page loaded:  18:07 UTC  |   11:07 AM Pacific  |   12:07 PM Mountain  |   01:07 PM Central  |   02:07 PM Eastern

 

ADVISORIES

FORECASTS

FORECASTS

OBSERVATIONS

USER TOOLS

ABOUT US